Farm — LBHF — position and weather

sailwx.info

Track history (hours):
 
Tides and Currents Weather Stations Pressure Air Temp Water Temp Dewpoint Dewpoint Depression Visibility Wind Speed Wind Dir Waves Ship Positions

Farm

Last reported at 2014-Sep-26 23:13 UTC. Time now 2014-Oct-02 02:31 UTC.
Position N 70°42' E 023°31'.

Length 46 m.

Type: Law enforcement. MMSI: 257069200.

Date/timePositionNaut miles runAvg speedWind from/ knotsBaromVisibWave heightAir tempDewpointWater temp
2014-Sep-26 23:13N 70°42' E 023°31'3 5.1
2014-Sep-26 22:33N 70°40' E 023°39'2 0.1
2014-Sep-26 11:33N 70°39' E 023°35'5612.7
2014-Sep-26 07:11N 70°13' E 021°08'50 2.5
2014-Sep-25 11:12N 69°47' E 019°04'710.3
2014-Sep-25 10:34N 69°40' E 019°00'4 3.7
2014-Sep-25 09:33N 69°37' E 018°55'  
2014-Sep-17 16:33N 69°46' E 019°05'1 0.8
2014-Sep-17 15:31N 69°45' E 019°04'3 0.5
2014-Sep-17 10:23N 69°47' E 019°10'8 9.6
2014-Sep-17 09:33N 69°41' E 018°53'6 6.1
2014-Sep-17 08:33N 69°35' E 018°51'8 7.9
2014-Sep-17 07:33N 69°42' E 019°02'3 2.8
2014-Sep-17 06:33N 69°40' E 018°59'3 3.2
2014-Sep-17 05:31N 69°43' E 019°02'2 1.8
2014-Sep-17 04:33N 69°45' E 019°03'  
Track history (hours):
 
Tides and Currents Weather Stations Pressure Air Temp Water Temp Dewpoint Dewpoint Depression Visibility Wind Speed Wind Dir Waves Ship Positions

Farm

Last reported at 2014-Sep-26 23:13 UTC. Time now 2014-Oct-02 02:31 UTC.
Position N 70°42' E 023°31'.

Length 46 m.

Type: Law enforcement. MMSI: 257069200.

Date/timePositionNaut miles runAvg speedWind from/ knotsBaromVisibWave heightAir tempDewpointWater temp
2014-Sep-26 23:13N 70°42' E 023°31'3 5.1
2014-Sep-26 22:33N 70°40' E 023°39'2 0.1
2014-Sep-26 11:33N 70°39' E 023°35'5612.7
2014-Sep-26 07:11N 70°13' E 021°08'50 2.5
2014-Sep-25 11:12N 69°47' E 019°04'710.3
2014-Sep-25 10:34N 69°40' E 019°00'4 3.7
2014-Sep-25 09:33N 69°37' E 018°55'  
2014-Sep-17 16:33N 69°46' E 019°05'1 0.8
2014-Sep-17 15:31N 69°45' E 019°04'3 0.5
2014-Sep-17 10:23N 69°47' E 019°10'8 9.6
2014-Sep-17 09:33N 69°41' E 018°53'6 6.1
2014-Sep-17 08:33N 69°35' E 018°51'8 7.9
2014-Sep-17 07:33N 69°42' E 019°02'3 2.8
2014-Sep-17 06:33N 69°40' E 018°59'3 3.2
2014-Sep-17 05:31N 69°43' E 019°02'2 1.8
2014-Sep-17 04:33N 69°45' E 019°03'  

Dump ship's entire track history